sensor_id;sensor_type;location;lat;lon;timestamp;pressure;altitude;pressure_sealevel;temperature;humidity
27840;BME280;15207;42.182;24.308;2023-05-25T00:01:33;99128.84;;;14.60;100.00
27840;BME280;15207;42.182;24.308;2023-05-25T00:04:00;99124.22;;;14.71;100.00
27840;BME280;15207;42.182;24.308;2023-05-25T00:06:28;99125.84;;;14.63;100.00
27840;BME280;15207;42.182;24.308;2023-05-25T00:08:55;99118.06;;;14.60;100.00
27840;BME280;15207;42.182;24.308;2023-05-25T00:11:24;99113.44;;;14.52;100.00
27840;BME280;15207;42.182;24.308;2023-05-25T00:13:51;99118.56;;;14.46;100.00
27840;BME280;15207;42.182;24.308;2023-05-25T00:16:17;99119.31;;;14.38;100.00
27840;BME280;15207;42.182;24.308;2023-05-25T00:18:43;99112.56;;;14.34;100.00
27840;BME280;15207;42.182;24.308;2023-05-25T00:21:09;99117.56;;;14.28;100.00
27840;BME280;15207;42.182;24.308;2023-05-25T00:23:35;99098.94;;;14.35;100.00
27840;BME280;15207;42.182;24.308;2023-05-25T00:26:02;99104.41;;;14.44;100.00
27840;BME280;15207;42.182;24.308;2023-05-25T00:28:28;99107.22;;;14.52;100.00
27840;BME280;15207;42.182;24.308;2023-05-25T00:30:54;99104.44;;;14.62;100.00
27840;BME280;15207;42.182;24.308;2023-05-25T00:33:20;99102.91;;;14.59;100.00
27840;BME280;15207;42.182;24.308;2023-05-25T00:35:46;99110.06;;;14.50;100.00
27840;BME280;15207;42.182;24.308;2023-05-25T00:38:16;99117.16;;;14.23;100.00
27840;BME280;15207;42.182;24.308;2023-05-25T00:40:42;99120.50;;;14.07;100.00
27840;BME280;15207;42.182;24.308;2023-05-25T00:43:09;99123.19;;;14.07;100.00
27840;BME280;15207;42.182;24.308;2023-05-25T00:45:35;99125.28;;;14.13;100.00
27840;BME280;15207;42.182;24.308;2023-05-25T00:48:02;99123.13;;;14.17;100.00
27840;BME280;15207;42.182;24.308;2023-05-25T00:50:38;99125.34;;;14.04;100.00
27840;BME280;15207;42.182;24.308;2023-05-25T00:53:05;99136.66;;;14.07;100.00
27840;BME280;15207;42.182;24.308;2023-05-25T00:55:35;99131.00;;;14.00;100.00
27840;BME280;15207;42.182;24.308;2023-05-25T00:58:04;99127.56;;;14.08;100.00
27840;BME280;15207;42.182;24.308;2023-05-25T01:00:31;99134.97;;;13.96;100.00
27840;BME280;15207;42.182;24.308;2023-05-25T01:02:58;99130.22;;;13.80;100.00
27840;BME280;15207;42.182;24.308;2023-05-25T01:05:26;99124.41;;;13.75;100.00
27840;BME280;15207;42.182;24.308;2023-05-25T01:07:56;99128.16;;;13.64;100.00
27840;BME280;15207;42.182;24.308;2023-05-25T01:10:24;99121.63;;;13.67;100.00
27840;BME280;15207;42.182;24.308;2023-05-25T01:12:52;99132.53;;;13.45;100.00
27840;BME280;15207;42.182;24.308;2023-05-25T01:15:19;99122.78;;;13.34;100.00
27840;BME280;15207;42.182;24.308;2023-05-25T01:17:44;99129.88;;;13.35;100.00
27840;BME280;15207;42.182;24.308;2023-05-25T01:20:10;99131.44;;;13.38;100.00
27840;BME280;15207;42.182;24.308;2023-05-25T01:22:44;99129.44;;;13.40;100.00
27840;BME280;15207;42.182;24.308;2023-05-25T01:25:17;99127.03;;;13.37;100.00
27840;BME280;15207;42.182;24.308;2023-05-25T01:28:14;99130.44;;;13.29;99.97
27840;BME280;15207;42.182;24.308;2023-05-25T01:30:44;99133.25;;;13.28;100.00
27840;BME280;15207;42.182;24.308;2023-05-25T01:33:11;99133.25;;;13.28;100.00
27840;BME280;15207;42.182;24.308;2023-05-25T01:35:38;99134.84;;;13.30;100.00
27840;BME280;15207;42.182;24.308;2023-05-25T01:38:05;99134.69;;;13.32;100.00
27840;BME280;15207;42.182;24.308;2023-05-25T01:40:32;99133.25;;;13.28;100.00
27840;BME280;15207;42.182;24.308;2023-05-25T01:42:58;99130.75;;;13.26;100.00
27840;BME280;15207;42.182;24.308;2023-05-25T01:45:23;99128.88;;;13.27;100.00
27840;BME280;15207;42.182;24.308;2023-05-25T01:48:26;99131.03;;;13.33;100.00
27840;BME280;15207;42.182;24.308;2023-05-25T01:51:04;99125.38;;;13.26;100.00
27840;BME280;15207;42.182;24.308;2023-05-25T01:53:39;99129.88;;;13.26;100.00
27840;BME280;15207;42.182;24.308;2023-05-25T01:56:08;99131.31;;;13.10;100.00
27840;BME280;15207;42.182;24.308;2023-05-25T01:58:39;99136.13;;;13.06;100.00
27840;BME280;15207;42.182;24.308;2023-05-25T02:01:07;99130.47;;;13.00;100.00
27840;BME280;15207;42.182;24.308;2023-05-25T02:03:34;99133.56;;;13.05;100.00
27840;BME280;15207;42.182;24.308;2023-05-25T02:05:59;99133.28;;;12.98;100.00
27840;BME280;15207;42.182;24.308;2023-05-25T02:08:25;99133.69;;;12.83;100.00
27840;BME280;15207;42.182;24.308;2023-05-25T02:10:51;99127.91;;;12.78;100.00
27840;BME280;15207;42.182;24.308;2023-05-25T02:13:16;99145.88;;;12.78;100.00
27840;BME280;15207;42.182;24.308;2023-05-25T02:15:42;99144.19;;;12.87;100.00
27840;BME280;15207;42.182;24.308;2023-05-25T02:18:08;99142.50;;;12.86;100.00
27840;BME280;15207;42.182;24.308;2023-05-25T02:20:35;99138.25;;;12.83;100.00
27840;BME280;15207;42.182;24.308;2023-05-25T02:23:01;99139.94;;;12.84;100.00
27840;BME280;15207;42.182;24.308;2023-05-25T02:25:27;99139.38;;;12.80;100.00
27840;BME280;15207;42.182;24.308;2023-05-25T02:27:52;99138.47;;;12.70;100.00
27840;BME280;15207;42.182;24.308;2023-05-25T02:30:18;99137.09;;;12.66;100.00
27840;BME280;15207;42.182;24.308;2023-05-25T02:32:44;99132.16;;;12.71;100.00
27840;BME280;15207;42.182;24.308;2023-05-25T02:35:09;99120.28;;;12.74;100.00
27840;BME280;15207;42.182;24.308;2023-05-25T02:37:35;99125.22;;;12.68;100.00
27840;BME280;15207;42.182;24.308;2023-05-25T02:40:01;99135.66;;;12.72;100.00
27840;BME280;15207;42.182;24.308;2023-05-25T02:42:27;99134.84;;;12.71;100.00
27840;BME280;15207;42.182;24.308;2023-05-25T02:44:53;99135.97;;;12.68;100.00
27840;BME280;15207;42.182;24.308;2023-05-25T02:47:18;99149.22;;;12.70;100.00
27840;BME280;15207;42.182;24.308;2023-05-25T02:49:44;99147.28;;;12.72;100.00
27840;BME280;15207;42.182;24.308;2023-05-25T02:52:10;99145.84;;;12.58;100.00
27840;BME280;15207;42.182;24.308;2023-05-25T02:54:36;99145.94;;;12.47;100.00
27840;BME280;15207;42.182;24.308;2023-05-25T02:57:03;99160.47;;;12.34;100.00
27840;BME280;15207;42.182;24.308;2023-05-25T02:59:29;99153.09;;;12.26;100.00
27840;BME280;15207;42.182;24.308;2023-05-25T03:01:55;99151.44;;;12.35;100.00
27840;BME280;15207;42.182;24.308;2023-05-25T03:04:20;99146.38;;;12.42;100.00
27840;BME280;15207;42.182;24.308;2023-05-25T03:06:46;99146.78;;;12.47;100.00
27840;BME280;15207;42.182;24.308;2023-05-25T03:09:12;99150.78;;;12.53;100.00
27840;BME280;15207;42.182;24.308;2023-05-25T03:11:38;99154.16;;;12.55;100.00
27840;BME280;15207;42.182;24.308;2023-05-25T03:14:04;99156.72;;;12.56;100.00
27840;BME280;15207;42.182;24.308;2023-05-25T03:16:29;99145.69;;;12.60;100.00
27840;BME280;15207;42.182;24.308;2023-05-25T03:18:55;99156.72;;;12.66;100.00
27840;BME280;15207;42.182;24.308;2023-05-25T03:21:21;99159.75;;;12.83;100.00
27840;BME280;15207;42.182;24.308;2023-05-25T03:23:48;99154.50;;;12.91;100.00
27840;BME280;15207;42.182;24.308;2023-05-25T03:26:14;99162.72;;;13.00;100.00
27840;BME280;15207;42.182;24.308;2023-05-25T03:28:41;99157.34;;;13.00;100.00
27840;BME280;15207;42.182;24.308;2023-05-25T03:31:07;99161.59;;;13.02;100.00
27840;BME280;15207;42.182;24.308;2023-05-25T03:33:33;99160.31;;;13.16;100.00
27840;BME280;15207;42.182;24.308;2023-05-25T03:35:58;99166.25;;;13.20;100.00
27840;BME280;15207;42.182;24.308;2023-05-25T03:38:24;99158.34;;;13.18;100.00
27840;BME280;15207;42.182;24.308;2023-05-25T03:40:49;99167.25;;;13.19;100.00
27840;BME280;15207;42.182;24.308;2023-05-25T03:43:16;99164.41;;;13.20;100.00
27840;BME280;15207;42.182;24.308;2023-05-25T03:45:41;99167.38;;;13.27;100.00
27840;BME280;15207;42.182;24.308;2023-05-25T03:48:07;99167.53;;;13.26;100.00
27840;BME280;15207;42.182;24.308;2023-05-25T03:50:33;99169.63;;;13.32;100.00
27840;BME280;15207;42.182;24.308;2023-05-25T03:52:59;99167.66;;;13.44;100.00
27840;BME280;15207;42.182;24.308;2023-05-25T03:55:24;99165.97;;;13.43;100.00
27840;BME280;15207;42.182;24.308;2023-05-25T03:57:50;99162.28;;;13.44;100.00
27840;BME280;15207;42.182;24.308;2023-05-25T04:00:16;99162.72;;;13.49;100.00
27840;BME280;15207;42.182;24.308;2023-05-25T04:02:43;99160.44;;;13.64;100.00
27840;BME280;15207;42.182;24.308;2023-05-25T04:05:09;99162.41;;;13.72;100.00
27840;BME280;15207;42.182;24.308;2023-05-25T04:07:35;99170.56;;;13.80;100.00
27840;BME280;15207;42.182;24.308;2023-05-25T04:10:01;99169.88;;;13.78;100.00
27840;BME280;15207;42.182;24.308;2023-05-25T04:12:27;99167.78;;;13.72;100.00
27840;BME280;15207;42.182;24.308;2023-05-25T04:14:53;99168.75;;;13.91;100.00
27840;BME280;15207;42.182;24.308;2023-05-25T04:17:18;99170.84;;;13.97;100.00
27840;BME280;15207;42.182;24.308;2023-05-25T04:19:46;99177.88;;;14.08;100.00
27840;BME280;15207;42.182;24.308;2023-05-25T04:22:12;99175.16;;;14.18;100.00
27840;BME280;15207;42.182;24.308;2023-05-25T04:24:37;99180.66;;;14.26;100.00
27840;BME280;15207;42.182;24.308;2023-05-25T04:27:03;99183.56;;;14.43;100.00
27840;BME280;15207;42.182;24.308;2023-05-25T04:29:29;99177.56;;;14.49;100.00
27840;BME280;15207;42.182;24.308;2023-05-25T04:31:56;99182.44;;;14.63;99.36
27840;BME280;15207;42.182;24.308;2023-05-25T04:34:21;99182.22;;;14.75;98.18
27840;BME280;15207;42.182;24.308;2023-05-25T04:36:48;99179.50;;;14.85;99.72
27840;BME280;15207;42.182;24.308;2023-05-25T04:39:13;99177.59;;;14.95;98.50
27840;BME280;15207;42.182;24.308;2023-05-25T04:41:41;99184.28;;;15.09;98.17
27840;BME280;15207;42.182;24.308;2023-05-25T04:44:07;99174.59;;;15.34;96.66
27840;BME280;15207;42.182;24.308;2023-05-25T04:46:33;99181.94;;;15.51;95.59
27840;BME280;15207;42.182;24.308;2023-05-25T04:49:02;99171.81;;;15.71;96.98
27840;BME280;15207;42.182;24.308;2023-05-25T04:51:29;99176.84;;;15.92;96.08
27840;BME280;15207;42.182;24.308;2023-05-25T04:53:55;99176.13;;;16.08;94.83
27840;BME280;15207;42.182;24.308;2023-05-25T04:56:20;99173.63;;;16.15;91.41
27840;BME280;15207;42.182;24.308;2023-05-25T04:58:50;99181.94;;;16.22;91.67
27840;BME280;15207;42.182;24.308;2023-05-25T05:01:16;99186.38;;;16.31;92.60
27840;BME280;15207;42.182;24.308;2023-05-25T05:03:44;99175.63;;;16.39;93.72
27840;BME280;15207;42.182;24.308;2023-05-25T05:06:09;99185.41;;;16.41;94.10
27840;BME280;15207;42.182;24.308;2023-05-25T05:08:35;99179.50;;;16.45;94.02
27840;BME280;15207;42.182;24.308;2023-05-25T05:11:01;99183.25;;;16.52;93.64
27840;BME280;15207;42.182;24.308;2023-05-25T05:13:27;99182.25;;;16.53;94.12
27840;BME280;15207;42.182;24.308;2023-05-25T05:15:52;99185.84;;;16.28;95.82
27840;BME280;15207;42.182;24.308;2023-05-25T05:18:18;99183.72;;;16.39;97.25
27840;BME280;15207;42.182;24.308;2023-05-25T05:20:44;99179.34;;;16.47;96.66
27840;BME280;15207;42.182;24.308;2023-05-25T05:23:11;99183.06;;;16.54;96.00
27840;BME280;15207;42.182;24.308;2023-05-25T05:25:37;99179.41;;;16.63;94.06
27840;BME280;15207;42.182;24.308;2023-05-25T05:28:03;99181.31;;;16.79;93.33
27840;BME280;15207;42.182;24.308;2023-05-25T05:30:29;99181.84;;;16.91;91.65
27840;BME280;15207;42.182;24.308;2023-05-25T05:32:55;99181.00;;;16.99;90.50
27840;BME280;15207;42.182;24.308;2023-05-25T05:35:21;99178.00;;;17.02;90.82
27840;BME280;15207;42.182;24.308;2023-05-25T05:37:47;99187.84;;;17.20;91.32
27840;BME280;15207;42.182;24.308;2023-05-25T05:40:13;99181.25;;;17.31;90.22
27840;BME280;15207;42.182;24.308;2023-05-25T05:42:38;99181.59;;;17.36;88.91
27840;BME280;15207;42.182;24.308;2023-05-25T05:45:05;99180.25;;;17.40;88.68
27840;BME280;15207;42.182;24.308;2023-05-25T05:47:30;99190.41;;;17.55;88.82
27840;BME280;15207;42.182;24.308;2023-05-25T05:49:56;99189.34;;;17.64;88.07
27840;BME280;15207;42.182;24.308;2023-05-25T05:52:22;99190.06;;;17.75;88.73
27840;BME280;15207;42.182;24.308;2023-05-25T05:54:47;99190.84;;;17.92;87.13
27840;BME280;15207;42.182;24.308;2023-05-25T05:57:13;99188.81;;;18.10;88.23
27840;BME280;15207;42.182;24.308;2023-05-25T05:59:39;99190.69;;;18.02;88.48
27840;BME280;15207;42.182;24.308;2023-05-25T06:02:05;99189.81;;;18.18;88.15
27840;BME280;15207;42.182;24.308;2023-05-25T06:04:32;99191.44;;;18.44;87.32
27840;BME280;15207;42.182;24.308;2023-05-25T06:06:58;99187.75;;;18.68;85.68
27840;BME280;15207;42.182;24.308;2023-05-25T06:09:23;99194.41;;;18.89;85.33
27840;BME280;15207;42.182;24.308;2023-05-25T06:11:50;99192.44;;;19.14;83.84
27840;BME280;15207;42.182;24.308;2023-05-25T06:14:16;99194.13;;;19.39;82.05
27840;BME280;15207;42.182;24.308;2023-05-25T06:16:41;99195.88;;;19.55;80.50
27840;BME280;15207;42.182;24.308;2023-05-25T06:19:07;99188.59;;;19.71;77.32
27840;BME280;15207;42.182;24.308;2023-05-25T06:21:33;99191.81;;;19.89;76.98
27840;BME280;15207;42.182;24.308;2023-05-25T06:23:59;99190.22;;;19.95;75.87
27840;BME280;15207;42.182;24.308;2023-05-25T06:26:24;99187.75;;;20.08;74.60
27840;BME280;15207;42.182;24.308;2023-05-25T06:28:51;99198.34;;;20.33;72.39
27840;BME280;15207;42.182;24.308;2023-05-25T06:31:16;99191.19;;;20.63;70.25
27840;BME280;15207;42.182;24.308;2023-05-25T06:33:43;99186.09;;;20.90;67.24
27840;BME280;15207;42.182;24.308;2023-05-25T06:36:08;99187.47;;;21.00;65.61
27840;BME280;15207;42.182;24.308;2023-05-25T06:38:35;99185.28;;;21.11;64.85
27840;BME280;15207;42.182;24.308;2023-05-25T06:41:01;99183.94;;;21.22;67.58
27840;BME280;15207;42.182;24.308;2023-05-25T06:43:29;99181.38;;;21.42;66.64
27840;BME280;15207;42.182;24.308;2023-05-25T06:45:56;99188.00;;;21.54;62.28
27840;BME280;15207;42.182;24.308;2023-05-25T06:48:22;99173.84;;;21.66;63.41
27840;BME280;15207;42.182;24.308;2023-05-25T06:50:48;99177.78;;;21.85;61.64
27840;BME280;15207;42.182;24.308;2023-05-25T06:53:13;99177.25;;;22.03;62.26
27840;BME280;15207;42.182;24.308;2023-05-25T06:55:39;99185.38;;;22.25;60.77
27840;BME280;15207;42.182;24.308;2023-05-25T06:58:05;99173.47;;;22.33;59.62
27840;BME280;15207;42.182;24.308;2023-05-25T07:00:31;99172.81;;;22.31;60.03
27840;BME280;15207;42.182;24.308;2023-05-25T07:02:57;99177.72;;;22.42;60.86
27840;BME280;15207;42.182;24.308;2023-05-25T07:05:22;99178.66;;;22.56;59.53
27840;BME280;15207;42.182;24.308;2023-05-25T07:07:48;99169.03;;;22.67;60.26
27840;BME280;15207;42.182;24.308;2023-05-25T07:10:17;99172.22;;;22.78;60.82
27840;BME280;15207;42.182;24.308;2023-05-25T07:12:43;99162.34;;;22.77;61.33
27840;BME280;15207;42.182;24.308;2023-05-25T07:15:10;99172.44;;;22.83;59.95
27840;BME280;15207;42.182;24.308;2023-05-25T07:17:35;99171.63;;;22.89;60.27
27840;BME280;15207;42.182;24.308;2023-05-25T07:20:02;99165.97;;;23.04;60.08
27840;BME280;15207;42.182;24.308;2023-05-25T07:22:28;99171.06;;;23.21;59.10
27840;BME280;15207;42.182;24.308;2023-05-25T07:24:54;99166.25;;;23.30;60.00
27840;BME280;15207;42.182;24.308;2023-05-25T07:27:19;99165.22;;;23.44;58.40
27840;BME280;15207;42.182;24.308;2023-05-25T07:29:45;99165.84;;;23.53;58.99
27840;BME280;15207;42.182;24.308;2023-05-25T07:32:11;99163.97;;;23.60;61.87
27840;BME280;15207;42.182;24.308;2023-05-25T07:34:37;99160.00;;;23.70;59.19
27840;BME280;15207;42.182;24.308;2023-05-25T07:37:03;99159.53;;;23.86;58.98
27840;BME280;15207;42.182;24.308;2023-05-25T07:39:28;99170.25;;;23.95;58.87
27840;BME280;15207;42.182;24.308;2023-05-25T07:41:54;99169.63;;;23.99;58.69
27840;BME280;15207;42.182;24.308;2023-05-25T07:44:19;99164.75;;;24.01;58.80
27840;BME280;15207;42.182;24.308;2023-05-25T07:46:45;99164.97;;;24.07;58.97
27840;BME280;15207;42.182;24.308;2023-05-25T07:49:11;99162.47;;;24.05;59.18
27840;BME280;15207;42.182;24.308;2023-05-25T07:51:40;99158.41;;;24.28;59.33
27840;BME280;15207;42.182;24.308;2023-05-25T07:54:06;99160.94;;;24.29;58.38
27840;BME280;15207;42.182;24.308;2023-05-25T07:56:32;99158.81;;;24.38;58.41
27840;BME280;15207;42.182;24.308;2023-05-25T07:58:57;99167.47;;;24.35;56.92
27840;BME280;15207;42.182;24.308;2023-05-25T08:01:24;99161.94;;;24.42;58.35
27840;BME280;15207;42.182;24.308;2023-05-25T08:03:49;99162.59;;;24.44;57.67
27840;BME280;15207;42.182;24.308;2023-05-25T08:06:15;99164.66;;;24.49;55.91
27840;BME280;15207;42.182;24.308;2023-05-25T08:08:41;99165.88;;;24.60;58.34
27840;BME280;15207;42.182;24.308;2023-05-25T08:11:09;99161.63;;;24.70;55.47
27840;BME280;15207;42.182;24.308;2023-05-25T08:13:36;99160.31;;;24.80;56.06
27840;BME280;15207;42.182;24.308;2023-05-25T08:16:01;99152.72;;;24.89;53.87
27840;BME280;15207;42.182;24.308;2023-05-25T08:18:27;99155.25;;;24.90;54.16
27840;BME280;15207;42.182;24.308;2023-05-25T08:20:52;99146.31;;;25.02;55.99
27840;BME280;15207;42.182;24.308;2023-05-25T08:23:18;99159.13;;;25.08;54.53
27840;BME280;15207;42.182;24.308;2023-05-25T08:25:44;99157.84;;;25.11;55.27
27840;BME280;15207;42.182;24.308;2023-05-25T08:28:11;99151.03;;;25.20;56.71
27840;BME280;15207;42.182;24.308;2023-05-25T08:30:37;99147.59;;;25.31;55.47
27840;BME280;15207;42.182;24.308;2023-05-25T08:33:03;99148.38;;;25.39;55.02
27840;BME280;15207;42.182;24.308;2023-05-25T08:35:32;99142.75;;;25.33;54.76
27840;BME280;15207;42.182;24.308;2023-05-25T08:37:57;99140.00;;;25.33;55.05
27840;BME280;15207;42.182;24.308;2023-05-25T08:40:26;99144.03;;;25.31;56.35
27840;BME280;15207;42.182;24.308;2023-05-25T08:42:55;99137.19;;;25.15;54.67
27840;BME280;15207;42.182;24.308;2023-05-25T08:45:22;99144.66;;;25.26;57.64
27840;BME280;15207;42.182;24.308;2023-05-25T08:47:51;99146.31;;;25.34;57.01
27840;BME280;15207;42.182;24.308;2023-05-25T08:50:18;99140.78;;;25.41;54.95
27840;BME280;15207;42.182;24.308;2023-05-25T08:52:44;99139.16;;;25.33;55.33
27840;BME280;15207;42.182;24.308;2023-05-25T08:55:14;99140.38;;;25.37;55.13
27840;BME280;15207;42.182;24.308;2023-05-25T08:58:04;99142.91;;;25.39;56.25
27840;BME280;15207;42.182;24.308;2023-05-25T09:00:34;99135.25;;;25.47;56.68
27840;BME280;15207;42.182;24.308;2023-05-25T09:03:12;99142.56;;;25.54;56.97
27840;BME280;15207;42.182;24.308;2023-05-25T09:05:40;99131.19;;;25.57;54.54
27840;BME280;15207;42.182;24.308;2023-05-25T09:08:07;99140.22;;;25.57;54.11
27840;BME280;15207;42.182;24.308;2023-05-25T09:10:35;99135.81;;;25.56;53.88
27840;BME280;15207;42.182;24.308;2023-05-25T09:13:01;99141.03;;;25.65;53.86
27840;BME280;15207;42.182;24.308;2023-05-25T09:15:30;99132.28;;;25.49;51.54
27840;BME280;15207;42.182;24.308;2023-05-25T09:17:56;99127.63;;;25.49;54.39
27840;BME280;15207;42.182;24.308;2023-05-25T09:20:23;99135.19;;;25.54;53.89
27840;BME280;15207;42.182;24.308;2023-05-25T09:22:49;99137.06;;;25.60;54.13
27840;BME280;15207;42.182;24.308;2023-05-25T09:25:18;99133.78;;;25.70;52.18
27840;BME280;15207;42.182;24.308;2023-05-25T09:27:47;99136.25;;;25.79;51.70
27840;BME280;15207;42.182;24.308;2023-05-25T09:30:13;99129.47;;;25.81;51.36
27840;BME280;15207;42.182;24.308;2023-05-25T09:32:39;99131.16;;;25.82;50.50
27840;BME280;15207;42.182;24.308;2023-05-25T09:35:08;99139.84;;;25.79;52.67
27840;BME280;15207;42.182;24.308;2023-05-25T09:37:35;99133.41;;;25.67;49.22
27840;BME280;15207;42.182;24.308;2023-05-25T09:40:02;99132.91;;;25.77;50.44
27840;BME280;15207;42.182;24.308;2023-05-25T09:42:32;99136.41;;;25.84;51.59
27840;BME280;15207;42.182;24.308;2023-05-25T09:44:59;99130.09;;;25.83;52.41
27840;BME280;15207;42.182;24.308;2023-05-25T09:47:28;99137.03;;;25.86;53.84
27840;BME280;15207;42.182;24.308;2023-05-25T09:49:57;99124.63;;;26.02;52.88
27840;BME280;15207;42.182;24.308;2023-05-25T09:52:23;99125.34;;;26.16;49.67
27840;BME280;15207;42.182;24.308;2023-05-25T09:54:50;99125.66;;;26.26;47.48
27840;BME280;15207;42.182;24.308;2023-05-25T09:57:19;99127.47;;;26.33;44.29
27840;BME280;15207;42.182;24.308;2023-05-25T09:59:45;99120.47;;;26.37;45.84
27840;BME280;15207;42.182;24.308;2023-05-25T10:02:12;99116.09;;;26.48;46.39
27840;BME280;15207;42.182;24.308;2023-05-25T10:04:38;99114.34;;;26.53;45.49
27840;BME280;15207;42.182;24.308;2023-05-25T10:07:04;99111.97;;;26.57;42.77
27840;BME280;15207;42.182;24.308;2023-05-25T10:09:31;99105.88;;;26.55;41.01
27840;BME280;15207;42.182;24.308;2023-05-25T10:12:00;99104.25;;;26.66;40.20
27840;BME280;15207;42.182;24.308;2023-05-25T10:14:27;99098.50;;;26.67;36.52
27840;BME280;15207;42.182;24.308;2023-05-25T10:16:56;99088.66;;;26.78;38.17
27840;BME280;15207;42.182;24.308;2023-05-25T10:19:41;99089.28;;;26.92;38.22
27840;BME280;15207;42.182;24.308;2023-05-25T10:22:31;99077.78;;;27.02;38.00
27840;BME280;15207;42.182;24.308;2023-05-25T10:27:40;99077.41;;;27.11;43.70
27840;BME280;15207;42.182;24.308;2023-05-25T10:30:07;99067.56;;;26.91;43.01
27840;BME280;15207;42.182;24.308;2023-05-25T10:32:38;99075.06;;;26.84;44.21
27840;BME280;15207;42.182;24.308;2023-05-25T10:35:04;99078.16;;;26.87;44.33
27840;BME280;15207;42.182;24.308;2023-05-25T10:37:30;99073.47;;;27.06;44.82
27840;BME280;15207;42.182;24.308;2023-05-25T10:39:59;99076.38;;;27.24;42.97
27840;BME280;15207;42.182;24.308;2023-05-25T10:42:25;99077.69;;;27.21;43.36
27840;BME280;15207;42.182;24.308;2023-05-25T10:44:52;99076.03;;;27.44;41.48
27840;BME280;15207;42.182;24.308;2023-05-25T10:47:19;99065.03;;;27.32;42.11
27840;BME280;15207;42.182;24.308;2023-05-25T10:49:58;99055.84;;;27.26;39.72
27840;BME280;15207;42.182;24.308;2023-05-25T10:52:27;99044.13;;;27.43;42.84
27840;BME280;15207;42.182;24.308;2023-05-25T10:55:00;99042.06;;;27.50;42.17
27840;BME280;15207;42.182;24.308;2023-05-25T10:57:26;99057.50;;;27.63;43.28
27840;BME280;15207;42.182;24.308;2023-05-25T11:00:01;99050.22;;;27.81;40.60
27840;BME280;15207;42.182;24.308;2023-05-25T11:02:46;99054.69;;;28.11;39.03
27840;BME280;15207;42.182;24.308;2023-05-25T11:07:58;99056.50;;;28.05;37.96
27840;BME280;15207;42.182;24.308;2023-05-25T11:18:49;99068.41;;;28.23;38.80
27840;BME280;15207;42.182;24.308;2023-05-25T11:24:03;99061.78;;;28.48;36.88
27840;BME280;15207;42.182;24.308;2023-05-25T11:26:35;99053.44;;;28.43;36.78
27840;BME280;15207;42.182;24.308;2023-05-25T11:29:13;99052.38;;;28.32;35.60
27840;BME280;15207;42.182;24.308;2023-05-25T11:31:40;99047.63;;;28.27;36.31
27840;BME280;15207;42.182;24.308;2023-05-25T11:34:05;99045.69;;;28.28;36.73
27840;BME280;15207;42.182;24.308;2023-05-25T11:36:33;99051.72;;;28.01;37.75
27840;BME280;15207;42.182;24.308;2023-05-25T11:39:00;99056.03;;;27.96;37.26
27840;BME280;15207;42.182;24.308;2023-05-25T11:41:29;99057.03;;;27.78;39.17
27840;BME280;15207;42.182;24.308;2023-05-25T11:44:02;99075.19;;;26.89;42.42
27840;BME280;15207;42.182;24.308;2023-05-25T11:46:30;99092.78;;;25.31;47.01
27840;BME280;15207;42.182;24.308;2023-05-25T11:48:58;99084.97;;;24.32;50.05
27840;BME280;15207;42.182;24.308;2023-05-25T11:51:27;99088.28;;;23.81;52.74
27840;BME280;15207;42.182;24.308;2023-05-25T11:53:53;99088.75;;;23.44;54.17
27840;BME280;15207;42.182;24.308;2023-05-25T11:56:19;99092.50;;;23.03;56.10
27840;BME280;15207;42.182;24.308;2023-05-25T12:01:16;99084.06;;;22.91;55.78
27840;BME280;15207;42.182;24.308;2023-05-25T12:03:43;99080.06;;;22.80;54.26
27840;BME280;15207;42.182;24.308;2023-05-25T12:06:25;99077.97;;;22.82;55.10
27840;BME280;15207;42.182;24.308;2023-05-25T12:08:51;99072.31;;;22.90;52.34
27840;BME280;15207;42.182;24.308;2023-05-25T12:11:18;99065.78;;;22.78;51.33
27840;BME280;15207;42.182;24.308;2023-05-25T12:13:52;99062.00;;;22.72;51.27
27840;BME280;15207;42.182;24.308;2023-05-25T12:16:18;99064.31;;;22.68;50.44
27840;BME280;15207;42.182;24.308;2023-05-25T12:18:44;99064.72;;;22.72;49.43
27840;BME280;15207;42.182;24.308;2023-05-25T12:21:09;99049.59;;;22.69;50.07
27840;BME280;15207;42.182;24.308;2023-05-25T12:23:35;99056.94;;;22.76;49.07
27840;BME280;15207;42.182;24.308;2023-05-25T12:26:09;99058.22;;;22.73;48.53
27840;BME280;15207;42.182;24.308;2023-05-25T12:28:39;99057.78;;;22.69;48.91
27840;BME280;15207;42.182;24.308;2023-05-25T12:31:27;99057.81;;;22.83;48.89
27840;BME280;15207;42.182;24.308;2023-05-25T12:34:13;99054.88;;;22.84;48.63
27840;BME280;15207;42.182;24.308;2023-05-25T12:39:05;99057.59;;;22.98;49.12
27840;BME280;15207;42.182;24.308;2023-05-25T12:41:41;99059.28;;;23.06;50.41
27840;BME280;15207;42.182;24.308;2023-05-25T12:44:25;99060.13;;;23.27;50.59
27840;BME280;15207;42.182;24.308;2023-05-25T12:46:53;99062.28;;;23.38;50.75
27840;BME280;15207;42.182;24.308;2023-05-25T12:49:29;99063.50;;;23.49;50.06
27840;BME280;15207;42.182;24.308;2023-05-25T12:51:57;99068.34;;;23.60;50.10
27840;BME280;15207;42.182;24.308;2023-05-25T12:57:00;99068.50;;;23.79;54.62
27840;BME280;15207;42.182;24.308;2023-05-25T12:59:34;99064.94;;;23.78;53.38
27840;BME280;15207;42.182;24.308;2023-05-25T13:02:01;99066.00;;;23.71;52.33
27840;BME280;15207;42.182;24.308;2023-05-25T13:04:27;99072.94;;;23.73;52.02
27840;BME280;15207;42.182;24.308;2023-05-25T13:06:53;99070.41;;;23.72;53.26
27840;BME280;15207;42.182;24.308;2023-05-25T13:09:23;99068.72;;;23.77;52.59
27840;BME280;15207;42.182;24.308;2023-05-25T13:11:51;99067.84;;;23.90;50.35